sensor_id;sensor_type;location;lat;lon;timestamp;P1;durP1;ratioP1;P2;durP2;ratioP2
39888;SDS011;25563;50.844;4.308;2022-09-27T06:04:49;10.00;;;8.63;;
39888;SDS011;25563;50.844;4.308;2022-09-27T06:07:15;7.60;;;6.03;;
39888;SDS011;25563;50.844;4.308;2022-09-27T06:09:40;6.15;;;5.57;;
39888;SDS011;25563;50.844;4.308;2022-09-27T06:12:08;5.95;;;4.82;;
39888;SDS011;25563;50.844;4.308;2022-09-27T06:14:36;8.65;;;4.68;;
39888;SDS011;25563;50.844;4.308;2022-09-27T06:17:02;8.98;;;4.68;;
39888;SDS011;25563;50.844;4.308;2022-09-27T06:19:28;8.30;;;4.25;;
39888;SDS011;25563;50.844;4.308;2022-09-27T06:21:54;5.38;;;4.80;;
39888;SDS011;25563;50.844;4.308;2022-09-27T06:24:20;4.65;;;4.22;;
39888;SDS011;25563;50.844;4.308;2022-09-27T06:26:45;7.47;;;3.58;;
39888;SDS011;25563;50.844;4.308;2022-09-27T06:29:11;8.52;;;4.18;;
39888;SDS011;25563;50.844;4.308;2022-09-27T06:31:37;3.85;;;3.45;;
39888;SDS011;25563;50.844;4.308;2022-09-27T06:34:02;4.50;;;2.53;;
39888;SDS011;25563;50.844;4.308;2022-09-27T06:36:28;6.78;;;3.75;;
39888;SDS011;25563;50.844;4.308;2022-09-27T06:38:54;3.55;;;3.13;;
39888;SDS011;25563;50.844;4.308;2022-09-27T06:41:21;7.25;;;3.60;;
39888;SDS011;25563;50.844;4.308;2022-09-27T06:43:47;6.28;;;3.80;;
39888;SDS011;25563;50.844;4.308;2022-09-27T06:46:13;3.70;;;3.28;;
39888;SDS011;25563;50.844;4.308;2022-09-27T06:48:39;5.38;;;3.47;;
39888;SDS011;25563;50.844;4.308;2022-09-27T06:51:06;6.15;;;3.22;;
39888;SDS011;25563;50.844;4.308;2022-09-27T06:53:32;5.53;;;3.53;;
39888;SDS011;25563;50.844;4.308;2022-09-27T06:55:58;4.45;;;3.10;;
39888;SDS011;25563;50.844;4.308;2022-09-27T06:58:25;5.53;;;2.90;;
39888;SDS011;25563;50.844;4.308;2022-09-27T07:01:10;6.50;;;3.10;;
39888;SDS011;25563;50.844;4.308;2022-09-27T07:03:36;7.95;;;3.40;;
39888;SDS011;25563;50.844;4.308;2022-09-27T07:06:05;6.82;;;3.38;;
39888;SDS011;25563;50.844;4.308;2022-09-27T07:08:36;4.55;;;2.97;;
39888;SDS011;25563;50.844;4.308;2022-09-27T07:11:04;6.35;;;3.47;;
39888;SDS011;25563;50.844;4.308;2022-09-27T07:13:31;8.32;;;3.10;;
39888;SDS011;25563;50.844;4.308;2022-09-27T07:19:04;11.73;;;3.70;;
39888;SDS011;25563;50.844;4.308;2022-09-27T07:21:31;5.88;;;3.60;;
39888;SDS011;25563;50.844;4.308;2022-09-27T07:23:57;10.77;;;3.85;;
39888;SDS011;25563;50.844;4.308;2022-09-27T07:26:23;7.57;;;3.10;;
39888;SDS011;25563;50.844;4.308;2022-09-27T07:28:49;3.92;;;3.20;;
39888;SDS011;25563;50.844;4.308;2022-09-27T07:31:15;8.38;;;3.40;;
39888;SDS011;25563;50.844;4.308;2022-09-27T07:33:41;3.17;;;2.72;;
39888;SDS011;25563;50.844;4.308;2022-09-27T07:36:10;7.53;;;2.80;;
39888;SDS011;25563;50.844;4.308;2022-09-27T07:38:37;5.00;;;4.50;;
39888;SDS011;25563;50.844;4.308;2022-09-27T07:41:10;7.65;;;3.95;;
39888;SDS011;25563;50.844;4.308;2022-09-27T07:43:38;3.85;;;3.15;;
39888;SDS011;25563;50.844;4.308;2022-09-27T07:46:04;3.90;;;3.17;;
39888;SDS011;25563;50.844;4.308;2022-09-27T07:48:30;4.82;;;2.28;;
39888;SDS011;25563;50.844;4.308;2022-09-27T07:50:56;4.07;;;2.97;;
39888;SDS011;25563;50.844;4.308;2022-09-27T07:53:21;5.07;;;2.72;;
39888;SDS011;25563;50.844;4.308;2022-09-27T07:55:51;4.55;;;2.58;;
39888;SDS011;25563;50.844;4.308;2022-09-27T07:58:18;8.65;;;2.55;;
39888;SDS011;25563;50.844;4.308;2022-09-27T08:00:45;2.20;;;2.00;;
39888;SDS011;25563;50.844;4.308;2022-09-27T08:03:12;2.28;;;1.95;;
39888;SDS011;25563;50.844;4.308;2022-09-27T08:05:41;3.83;;;2.15;;
39888;SDS011;25563;50.844;4.308;2022-09-27T08:08:08;2.90;;;1.60;;
39888;SDS011;25563;50.844;4.308;2022-09-27T08:10:34;5.00;;;2.28;;
39888;SDS011;25563;50.844;4.308;2022-09-27T08:13:00;6.68;;;1.90;;
39888;SDS011;25563;50.844;4.308;2022-09-27T08:15:27;6.43;;;1.90;;
39888;SDS011;25563;50.844;4.308;2022-09-27T08:17:55;2.30;;;1.85;;
39888;SDS011;25563;50.844;4.308;2022-09-27T08:20:20;4.63;;;1.70;;
39888;SDS011;25563;50.844;4.308;2022-09-27T08:22:46;3.17;;;1.92;;
39888;SDS011;25563;50.844;4.308;2022-09-27T08:25:12;5.20;;;1.30;;
39888;SDS011;25563;50.844;4.308;2022-09-27T08:27:38;5.00;;;1.88;;
39888;SDS011;25563;50.844;4.308;2022-09-27T08:30:05;3.70;;;1.27;;
39888;SDS011;25563;50.844;4.308;2022-09-27T08:32:31;3.13;;;1.45;;
39888;SDS011;25563;50.844;4.308;2022-09-27T08:34:57;5.68;;;1.65;;
39888;SDS011;25563;50.844;4.308;2022-09-27T08:37:23;4.15;;;1.75;;
39888;SDS011;25563;50.844;4.308;2022-09-27T08:39:50;5.75;;;1.90;;
39888;SDS011;25563;50.844;4.308;2022-09-27T08:45:24;2.90;;;1.40;;
39888;SDS011;25563;50.844;4.308;2022-09-27T08:47:59;2.22;;;1.30;;
39888;SDS011;25563;50.844;4.308;2022-09-27T08:50:31;1.98;;;1.23;;
39888;SDS011;25563;50.844;4.308;2022-09-27T08:53:02;2.97;;;1.33;;
39888;SDS011;25563;50.844;4.308;2022-09-27T08:55:39;4.80;;;1.30;;
39888;SDS011;25563;50.844;4.308;2022-09-27T08:58:24;2.60;;;1.10;;
39888;SDS011;25563;50.844;4.308;2022-09-27T09:00:53;6.70;;;1.67;;
39888;SDS011;25563;50.844;4.308;2022-09-27T09:03:42;10.93;;;1.48;;
39888;SDS011;25563;50.844;4.308;2022-09-27T09:26:12;7.72;;;1.70;;
39888;SDS011;25563;50.844;4.308;2022-09-27T09:33:58;5.85;;;1.63;;
39888;SDS011;25563;50.844;4.308;2022-09-27T09:39:10;6.40;;;1.50;;
39888;SDS011;25563;50.844;4.308;2022-09-27T09:44:38;5.72;;;1.50;;
39888;SDS011;25563;50.844;4.308;2022-09-27T09:47:50;1.77;;;0.95;;
39888;SDS011;25563;50.844;4.308;2022-09-27T09:50:35;4.90;;;1.10;;
39888;SDS011;25563;50.844;4.308;2022-09-27T09:55:39;3.67;;;1.40;;
39888;SDS011;25563;50.844;4.308;2022-09-27T10:00:58;3.83;;;1.40;;
39888;SDS011;25563;50.844;4.308;2022-09-27T10:03:35;6.55;;;1.83;;
39888;SDS011;25563;50.844;4.308;2022-09-27T10:06:01;3.70;;;1.42;;
39888;SDS011;25563;50.844;4.308;2022-09-27T10:08:27;8.55;;;1.38;;
39888;SDS011;25563;50.844;4.308;2022-09-27T10:10:53;8.38;;;2.20;;
39888;SDS011;25563;50.844;4.308;2022-09-27T10:13:20;4.25;;;1.60;;
39888;SDS011;25563;50.844;4.308;2022-09-27T10:15:49;4.38;;;1.40;;
39888;SDS011;25563;50.844;4.308;2022-09-27T10:18:34;5.28;;;1.20;;
39888;SDS011;25563;50.844;4.308;2022-09-27T10:21:07;7.18;;;1.58;;
39888;SDS011;25563;50.844;4.308;2022-09-27T10:26:28;4.53;;;1.40;;
39888;SDS011;25563;50.844;4.308;2022-09-27T10:28:55;8.35;;;1.85;;
39888;SDS011;25563;50.844;4.308;2022-09-27T10:31:21;4.13;;;1.58;;
39888;SDS011;25563;50.844;4.308;2022-09-27T10:33:55;3.17;;;1.60;;
39888;SDS011;25563;50.844;4.308;2022-09-27T10:36:29;5.32;;;1.70;;
39888;SDS011;25563;50.844;4.308;2022-09-27T10:38:58;3.65;;;1.60;;
39888;SDS011;25563;50.844;4.308;2022-09-27T10:46:45;8.40;;;2.35;;
39888;SDS011;25563;50.844;4.308;2022-09-27T10:49:30;7.15;;;2.55;;
39888;SDS011;25563;50.844;4.308;2022-09-27T10:51:59;14.52;;;2.83;;
39888;SDS011;25563;50.844;4.308;2022-09-27T10:54:36;6.78;;;2.28;;
39888;SDS011;25563;50.844;4.308;2022-09-27T10:57:08;5.97;;;1.83;;
39888;SDS011;25563;50.844;4.308;2022-09-27T10:59:47;4.75;;;2.30;;
39888;SDS011;25563;50.844;4.308;2022-09-27T11:02:37;12.60;;;2.75;;
39888;SDS011;25563;50.844;4.308;2022-09-27T11:05:11;3.65;;;1.55;;
39888;SDS011;25563;50.844;4.308;2022-09-27T11:07:58;5.15;;;1.60;;
39888;SDS011;25563;50.844;4.308;2022-09-27T11:15:30;2.30;;;0.60;;
39888;SDS011;25563;50.844;4.308;2022-09-27T11:18:11;2.47;;;0.77;;
39888;SDS011;25563;50.844;4.308;2022-09-27T11:20:50;1.75;;;0.80;;
39888;SDS011;25563;50.844;4.308;2022-09-27T11:23:27;4.22;;;0.90;;
39888;SDS011;25563;50.844;4.308;2022-09-27T11:26:08;1.17;;;0.63;;
39888;SDS011;25563;50.844;4.308;2022-09-27T11:34:26;3.28;;;0.77;;
39888;SDS011;25563;50.844;4.308;2022-09-27T11:37:29;1.25;;;0.47;;
39888;SDS011;25563;50.844;4.308;2022-09-27T11:40:21;2.42;;;0.60;;
39888;SDS011;25563;50.844;4.308;2022-09-27T11:48:47;2.28;;;0.60;;
39888;SDS011;25563;50.844;4.308;2022-09-27T12:16:57;4.03;;;1.13;;
39888;SDS011;25563;50.844;4.308;2022-09-27T12:19:27;4.78;;;1.17;;
39888;SDS011;25563;50.844;4.308;2022-09-27T12:22:01;3.22;;;1.00;;
39888;SDS011;25563;50.844;4.308;2022-09-27T12:24:33;5.03;;;0.80;;
39888;SDS011;25563;50.844;4.308;2022-09-27T12:27:02;3.05;;;0.88;;
39888;SDS011;25563;50.844;4.308;2022-09-27T12:29:52;2.15;;;0.90;;
39888;SDS011;25563;50.844;4.308;2022-09-27T12:32:28;8.02;;;1.10;;
39888;SDS011;25563;50.844;4.308;2022-09-27T12:35:22;3.50;;;0.70;;
39888;SDS011;25563;50.844;4.308;2022-09-27T12:37:56;2.13;;;0.68;;
39888;SDS011;25563;50.844;4.308;2022-09-27T12:40:40;4.15;;;1.45;;
39888;SDS011;25563;50.844;4.308;2022-09-27T12:43:18;2.95;;;0.80;;
39888;SDS011;25563;50.844;4.308;2022-09-27T12:51:06;3.70;;;1.25;;
39888;SDS011;25563;50.844;4.308;2022-09-27T13:01:45;1.50;;;0.70;;
39888;SDS011;25563;50.844;4.308;2022-09-27T13:12:46;1.15;;;0.55;;
39888;SDS011;25563;50.844;4.308;2022-09-27T13:15:15;2.03;;;0.68;;
39888;SDS011;25563;50.844;4.308;2022-09-27T13:17:50;3.55;;;0.90;;
39888;SDS011;25563;50.844;4.308;2022-09-27T13:31:07;5.25;;;1.00;;
39888;SDS011;25563;50.844;4.308;2022-09-27T13:33:47;2.75;;;0.63;;
39888;SDS011;25563;50.844;4.308;2022-09-27T13:41:50;4.47;;;1.35;;
39888;SDS011;25563;50.844;4.308;2022-09-27T13:52:45;3.78;;;1.20;;
39888;SDS011;25563;50.844;4.308;2022-09-27T14:00:53;4.90;;;1.40;;
39888;SDS011;25563;50.844;4.308;2022-09-27T14:03:29;3.17;;;0.90;;
39888;SDS011;25563;50.844;4.308;2022-09-27T14:06:00;6.18;;;1.00;;
39888;SDS011;25563;50.844;4.308;2022-09-27T14:08:42;4.03;;;1.20;;
39888;SDS011;25563;50.844;4.308;2022-09-27T14:11:26;6.03;;;1.55;;
39888;SDS011;25563;50.844;4.308;2022-09-27T14:14:03;8.63;;;1.58;;
39888;SDS011;25563;50.844;4.308;2022-09-27T14:16:32;4.30;;;1.55;;
39888;SDS011;25563;50.844;4.308;2022-09-27T14:19:00;3.20;;;1.40;;
39888;SDS011;25563;50.844;4.308;2022-09-27T14:21:30;4.88;;;1.77;;
39888;SDS011;25563;50.844;4.308;2022-09-27T14:26:43;4.47;;;1.85;;
39888;SDS011;25563;50.844;4.308;2022-09-27T14:29:16;6.72;;;1.75;;
39888;SDS011;25563;50.844;4.308;2022-09-27T14:31:46;11.82;;;2.15;;
39888;SDS011;25563;50.844;4.308;2022-09-27T14:34:27;5.53;;;2.08;;
39888;SDS011;25563;50.844;4.308;2022-09-27T14:36:53;10.27;;;1.73;;
39888;SDS011;25563;50.844;4.308;2022-09-27T14:39:38;5.40;;;1.50;;
39888;SDS011;25563;50.844;4.308;2022-09-27T14:42:15;4.78;;;2.28;;
39888;SDS011;25563;50.844;4.308;2022-09-27T14:44:45;6.65;;;2.58;;
39888;SDS011;25563;50.844;4.308;2022-09-27T14:47:22;5.82;;;2.20;;
39888;SDS011;25563;50.844;4.308;2022-09-27T14:49:50;10.60;;;2.40;;
39888;SDS011;25563;50.844;4.308;2022-09-27T14:52:18;5.93;;;1.83;;
39888;SDS011;25563;50.844;4.308;2022-09-27T14:57:34;6.75;;;1.30;;
39888;SDS011;25563;50.844;4.308;2022-09-27T15:00:23;6.30;;;1.65;;
39888;SDS011;25563;50.844;4.308;2022-09-27T15:02:50;4.28;;;1.63;;
39888;SDS011;25563;50.844;4.308;2022-09-27T15:05:23;7.00;;;1.65;;
39888;SDS011;25563;50.844;4.308;2022-09-27T15:07:55;4.05;;;1.20;;
39888;SDS011;25563;50.844;4.308;2022-09-27T15:10:24;3.03;;;0.93;;
39888;SDS011;25563;50.844;4.308;2022-09-27T15:12:52;3.10;;;0.98;;
39888;SDS011;25563;50.844;4.308;2022-09-27T15:15:23;5.28;;;1.30;;
39888;SDS011;25563;50.844;4.308;2022-09-27T15:17:51;1.92;;;1.15;;
39888;SDS011;25563;50.844;4.308;2022-09-27T15:20:30;6.95;;;1.13;;
39888;SDS011;25563;50.844;4.308;2022-09-27T15:23:02;3.40;;;1.20;;
39888;SDS011;25563;50.844;4.308;2022-09-27T15:28:04;3.67;;;0.80;;
39888;SDS011;25563;50.844;4.308;2022-09-27T15:30:37;4.47;;;1.67;;
39888;SDS011;25563;50.844;4.308;2022-09-27T15:33:21;1.90;;;0.95;;
39888;SDS011;25563;50.844;4.308;2022-09-27T15:35:55;3.83;;;1.20;;
39888;SDS011;25563;50.844;4.308;2022-09-27T15:41:00;2.13;;;0.70;;
39888;SDS011;25563;50.844;4.308;2022-09-27T15:43:50;2.92;;;1.67;;
39888;SDS011;25563;50.844;4.308;2022-09-27T15:51:41;1.85;;;1.00;;
39888;SDS011;25563;50.844;4.308;2022-09-27T15:54:08;6.65;;;1.83;;
39888;SDS011;25563;50.844;4.308;2022-09-27T15:56:34;2.05;;;1.02;;
39888;SDS011;25563;50.844;4.308;2022-09-27T15:59:01;3.65;;;1.00;;
39888;SDS011;25563;50.844;4.308;2022-09-27T16:01:27;2.33;;;1.00;;
39888;SDS011;25563;50.844;4.308;2022-09-27T16:03:52;3.10;;;0.90;;
39888;SDS011;25563;50.844;4.308;2022-09-27T16:06:18;4.53;;;1.10;;
39888;SDS011;25563;50.844;4.308;2022-09-27T16:08:46;3.33;;;1.17;;
39888;SDS011;25563;50.844;4.308;2022-09-27T16:11:13;4.88;;;1.08;;
39888;SDS011;25563;50.844;4.308;2022-09-27T16:13:39;2.83;;;1.02;;
39888;SDS011;25563;50.844;4.308;2022-09-27T16:16:05;4.47;;;1.23;;
39888;SDS011;25563;50.844;4.308;2022-09-27T16:18:42;4.32;;;1.10;;
39888;SDS011;25563;50.844;4.308;2022-09-27T16:21:09;3.38;;;1.00;;
39888;SDS011;25563;50.844;4.308;2022-09-27T16:23:35;3.45;;;1.15;;
39888;SDS011;25563;50.844;4.308;2022-09-27T16:26:01;4.93;;;3.13;;
39888;SDS011;25563;50.844;4.308;2022-09-27T16:28:26;3.90;;;2.00;;
39888;SDS011;25563;50.844;4.308;2022-09-27T16:30:52;4.18;;;2.03;;
39888;SDS011;25563;50.844;4.308;2022-09-27T16:33:18;4.75;;;1.65;;
39888;SDS011;25563;50.844;4.308;2022-09-27T16:35:44;4.80;;;1.63;;
39888;SDS011;25563;50.844;4.308;2022-09-27T16:38:09;7.80;;;1.52;;
39888;SDS011;25563;50.844;4.308;2022-09-27T16:40:36;8.45;;;2.42;;
39888;SDS011;25563;50.844;4.308;2022-09-27T16:43:02;6.07;;;1.75;;
39888;SDS011;25563;50.844;4.308;2022-09-27T16:45:31;2.90;;;1.73;;
39888;SDS011;25563;50.844;4.308;2022-09-27T16:48:00;3.53;;;1.35;;
39888;SDS011;25563;50.844;4.308;2022-09-27T16:50:26;5.80;;;1.80;;
39888;SDS011;25563;50.844;4.308;2022-09-27T16:53:10;3.42;;;1.65;;
39888;SDS011;25563;50.844;4.308;2022-09-27T16:55:37;6.47;;;1.80;;
39888;SDS011;25563;50.844;4.308;2022-09-27T16:58:03;7.80;;;2.10;;
39888;SDS011;25563;50.844;4.308;2022-09-27T17:00:31;3.80;;;1.88;;
39888;SDS011;25563;50.844;4.308;2022-09-27T17:02:57;7.80;;;1.92;;
39888;SDS011;25563;50.844;4.308;2022-09-27T17:05:24;2.97;;;1.30;;
39888;SDS011;25563;50.844;4.308;2022-09-27T17:07:50;5.78;;;2.33;;
39888;SDS011;25563;50.844;4.308;2022-09-27T17:10:20;6.28;;;1.98;;
39888;SDS011;25563;50.844;4.308;2022-09-27T17:12:46;4.00;;;2.22;;
39888;SDS011;25563;50.844;4.308;2022-09-27T17:15:13;7.60;;;2.13;;
39888;SDS011;25563;50.844;4.308;2022-09-27T17:17:39;7.18;;;2.33;;
39888;SDS011;25563;50.844;4.308;2022-09-27T17:20:05;5.40;;;2.30;;
39888;SDS011;25563;50.844;4.308;2022-09-27T17:22:31;11.48;;;2.00;;
39888;SDS011;25563;50.844;4.308;2022-09-27T17:24:57;4.57;;;1.80;;
39888;SDS011;25563;50.844;4.308;2022-09-27T17:27:23;7.57;;;2.55;;
39888;SDS011;25563;50.844;4.308;2022-09-27T17:29:51;7.93;;;2.50;;
39888;SDS011;25563;50.844;4.308;2022-09-27T17:32:17;8.52;;;3.15;;
39888;SDS011;25563;50.844;4.308;2022-09-27T17:34:49;7.45;;;3.95;;
39888;SDS011;25563;50.844;4.308;2022-09-27T17:37:15;4.78;;;2.85;;
39888;SDS011;25563;50.844;4.308;2022-09-27T17:39:41;7.57;;;3.28;;
39888;SDS011;25563;50.844;4.308;2022-09-27T17:42:06;8.32;;;3.67;;
39888;SDS011;25563;50.844;4.308;2022-09-27T17:44:32;7.90;;;2.58;;
39888;SDS011;25563;50.844;4.308;2022-09-27T17:46:58;6.75;;;2.53;;
39888;SDS011;25563;50.844;4.308;2022-09-27T17:49:42;12.25;;;2.88;;
39888;SDS011;25563;50.844;4.308;2022-09-27T17:52:26;9.30;;;2.20;;
39888;SDS011;25563;50.844;4.308;2022-09-27T17:54:52;5.70;;;2.60;;
39888;SDS011;25563;50.844;4.308;2022-09-27T17:57:19;5.88;;;2.28;;
39888;SDS011;25563;50.844;4.308;2022-09-27T17:59:46;11.95;;;3.03;;
39888;SDS011;25563;50.844;4.308;2022-09-27T18:02:12;5.88;;;2.28;;
39888;SDS011;25563;50.844;4.308;2022-09-27T18:04:38;9.98;;;1.65;;
39888;SDS011;25563;50.844;4.308;2022-09-27T18:07:04;2.58;;;1.30;;
39888;SDS011;25563;50.844;4.308;2022-09-27T18:09:30;8.60;;;1.40;;
39888;SDS011;25563;50.844;4.308;2022-09-27T18:11:55;6.68;;;1.55;;
39888;SDS011;25563;50.844;4.308;2022-09-27T18:14:24;3.65;;;1.48;;
39888;SDS011;25563;50.844;4.308;2022-09-27T18:16:53;3.00;;;1.25;;
39888;SDS011;25563;50.844;4.308;2022-09-27T18:19:21;5.72;;;1.85;;
39888;SDS011;25563;50.844;4.308;2022-09-27T18:21:47;7.75;;;1.77;;
39888;SDS011;25563;50.844;4.308;2022-09-27T18:24:14;5.18;;;2.13;;
39888;SDS011;25563;50.844;4.308;2022-09-27T18:26:39;4.07;;;2.42;;
39888;SDS011;25563;50.844;4.308;2022-09-27T18:29:06;3.30;;;2.85;;
39888;SDS011;25563;50.844;4.308;2022-09-27T18:31:36;6.00;;;1.90;;
39888;SDS011;25563;50.844;4.308;2022-09-27T18:34:03;5.65;;;2.47;;
39888;SDS011;25563;50.844;4.308;2022-09-27T18:36:29;3.33;;;2.10;;
39888;SDS011;25563;50.844;4.308;2022-09-27T18:38:59;5.22;;;1.88;;
39888;SDS011;25563;50.844;4.308;2022-09-27T18:41:28;1.67;;;1.25;;
39888;SDS011;25563;50.844;4.308;2022-09-27T18:43:57;3.38;;;1.85;;
39888;SDS011;25563;50.844;4.308;2022-09-27T18:46:25;2.80;;;1.73;;
39888;SDS011;25563;50.844;4.308;2022-09-27T18:48:52;4.55;;;1.40;;
39888;SDS011;25563;50.844;4.308;2022-09-27T18:51:19;3.53;;;2.17;;
39888;SDS011;25563;50.844;4.308;2022-09-27T18:53:52;5.22;;;2.53;;
39888;SDS011;25563;50.844;4.308;2022-09-27T18:56:19;13.45;;;9.05;;
39888;SDS011;25563;50.844;4.308;2022-09-27T18:58:45;3.28;;;2.88;;
39888;SDS011;25563;50.844;4.308;2022-09-27T19:01:13;8.25;;;3.72;;
39888;SDS011;25563;50.844;4.308;2022-09-27T19:03:39;8.25;;;5.32;;
39888;SDS011;25563;50.844;4.308;2022-09-27T19:06:18;9.45;;;4.60;;
39888;SDS011;25563;50.844;4.308;2022-09-27T19:08:45;8.60;;;4.45;;
39888;SDS011;25563;50.844;4.308;2022-09-27T19:11:15;11.70;;;4.68;;
39888;SDS011;25563;50.844;4.308;2022-09-27T19:13:43;8.50;;;3.55;;
39888;SDS011;25563;50.844;4.308;2022-09-27T19:16:14;5.70;;;3.60;;
39888;SDS011;25563;50.844;4.308;2022-09-27T19:18:39;5.85;;;4.70;;
39888;SDS011;25563;50.844;4.308;2022-09-27T19:21:07;6.82;;;3.60;;
39888;SDS011;25563;50.844;4.308;2022-09-27T19:23:37;8.57;;;3.75;;
39888;SDS011;25563;50.844;4.308;2022-09-27T19:26:04;7.45;;;3.42;;
39888;SDS011;25563;50.844;4.308;2022-09-27T19:28:35;8.57;;;3.70;;
39888;SDS011;25563;50.844;4.308;2022-09-27T19:31:05;10.93;;;4.25;;
39888;SDS011;25563;50.844;4.308;2022-09-27T19:33:37;8.98;;;5.38;;
39888;SDS011;25563;50.844;4.308;2022-09-27T19:36:04;6.45;;;3.97;;
39888;SDS011;25563;50.844;4.308;2022-09-27T19:38:32;8.85;;;4.82;;
39888;SDS011;25563;50.844;4.308;2022-09-27T19:41:00;8.55;;;3.33;;
39888;SDS011;25563;50.844;4.308;2022-09-27T19:43:26;8.48;;;4.68;;
39888;SDS011;25563;50.844;4.308;2022-09-27T19:45:52;9.13;;;5.72;;
39888;SDS011;25563;50.844;4.308;2022-09-27T19:48:18;7.97;;;4.10;;
39888;SDS011;25563;50.844;4.308;2022-09-27T19:50:53;4.65;;;4.25;;
39888;SDS011;25563;50.844;4.308;2022-09-27T19:53:23;11.95;;;5.50;;
39888;SDS011;25563;50.844;4.308;2022-09-27T19:55:59;10.15;;;6.13;;
39888;SDS011;25563;50.844;4.308;2022-09-27T19:58:26;11.95;;;5.55;;
39888;SDS011;25563;50.844;4.308;2022-09-27T20:03:26;4.25;;;2.60;;
39888;SDS011;25563;50.844;4.308;2022-09-27T20:05:56;8.25;;;5.57;;
39888;SDS011;25563;50.844;4.308;2022-09-27T20:08:23;3.88;;;2.50;;
39888;SDS011;25563;50.844;4.308;2022-09-27T20:10:53;13.15;;;7.35;;
39888;SDS011;25563;50.844;4.308;2022-09-27T20:13:20;12.63;;;8.35;;
39888;SDS011;25563;50.844;4.308;2022-09-27T20:15:47;7.97;;;4.38;;
39888;SDS011;25563;50.844;4.308;2022-09-27T20:18:14;7.88;;;5.38;;
39888;SDS011;25563;50.844;4.308;2022-09-27T20:20:41;4.60;;;4.22;;
39888;SDS011;25563;50.844;4.308;2022-09-27T20:23:07;3.83;;;3.05;;
39888;SDS011;25563;50.844;4.308;2022-09-27T20:25:33;5.05;;;3.47;;
39888;SDS011;25563;50.844;4.308;2022-09-27T20:28:03;8.05;;;3.42;;
39888;SDS011;25563;50.844;4.308;2022-09-27T20:30:29;7.03;;;3.63;;
39888;SDS011;25563;50.844;4.308;2022-09-27T20:32:54;6.07;;;3.67;;
39888;SDS011;25563;50.844;4.308;2022-09-27T20:35:39;7.57;;;4.45;;
39888;SDS011;25563;50.844;4.308;2022-09-27T20:38:04;7.43;;;5.13;;
39888;SDS011;25563;50.844;4.308;2022-09-27T20:40:31;6.25;;;5.15;;
39888;SDS011;25563;50.844;4.308;2022-09-27T20:42:57;8.80;;;5.50;;
39888;SDS011;25563;50.844;4.308;2022-09-27T20:45:22;13.45;;;7.30;;
39888;SDS011;25563;50.844;4.308;2022-09-27T20:47:48;8.32;;;5.93;;
39888;SDS011;25563;50.844;4.308;2022-09-27T20:50:15;5.75;;;5.25;;
39888;SDS011;25563;50.844;4.308;2022-09-27T20:52:41;11.13;;;4.40;;
39888;SDS011;25563;50.844;4.308;2022-09-27T20:55:07;8.48;;;3.88;;
39888;SDS011;25563;50.844;4.308;2022-09-27T20:57:33;11.00;;;4.95;;
39888;SDS011;25563;50.844;4.308;2022-09-27T20:59:58;12.20;;;5.22;;
39888;SDS011;25563;50.844;4.308;2022-09-27T21:02:24;11.80;;;4.70;;
39888;SDS011;25563;50.844;4.308;2022-09-27T21:04:50;9.43;;;5.00;;
39888;SDS011;25563;50.844;4.308;2022-09-27T21:07:17;6.00;;;4.85;;
39888;SDS011;25563;50.844;4.308;2022-09-27T21:09:43;6.50;;;5.60;;
39888;SDS011;25563;50.844;4.308;2022-09-27T21:12:09;10.85;;;5.43;;
39888;SDS011;25563;50.844;4.308;2022-09-27T21:14:37;6.90;;;4.90;;
39888;SDS011;25563;50.844;4.308;2022-09-27T21:17:05;13.85;;;7.82;;
39888;SDS011;25563;50.844;4.308;2022-09-27T21:19:32;12.93;;;7.18;;
39888;SDS011;25563;50.844;4.308;2022-09-27T21:21:59;18.45;;;8.43;;
39888;SDS011;25563;50.844;4.308;2022-09-27T21:24:24;8.40;;;6.00;;
39888;SDS011;25563;50.844;4.308;2022-09-27T21:26:50;9.10;;;5.93;;
39888;SDS011;25563;50.844;4.308;2022-09-27T21:29:17;9.52;;;6.13;;
39888;SDS011;25563;50.844;4.308;2022-09-27T21:31:42;7.63;;;5.25;;
39888;SDS011;25563;50.844;4.308;2022-09-27T21:34:08;8.98;;;6.40;;
39888;SDS011;25563;50.844;4.308;2022-09-27T21:36:35;6.53;;;4.68;;
39888;SDS011;25563;50.844;4.308;2022-09-27T21:39:03;9.45;;;5.63;;
39888;SDS011;25563;50.844;4.308;2022-09-27T21:41:30;8.63;;;4.97;;
39888;SDS011;25563;50.844;4.308;2022-09-27T21:43:56;11.25;;;5.40;;
39888;SDS011;25563;50.844;4.308;2022-09-27T21:46:25;5.00;;;4.60;;
39888;SDS011;25563;50.844;4.308;2022-09-27T21:48:55;7.53;;;4.55;;
39888;SDS011;25563;50.844;4.308;2022-09-27T21:51:23;10.52;;;4.60;;
39888;SDS011;25563;50.844;4.308;2022-09-27T21:53:59;7.70;;;5.53;;
39888;SDS011;25563;50.844;4.308;2022-09-27T21:56:30;14.45;;;11.30;;
39888;SDS011;25563;50.844;4.308;2022-09-27T21:58:58;7.10;;;4.75;;
39888;SDS011;25563;50.844;4.308;2022-09-27T22:01:26;7.90;;;4.97;;
39888;SDS011;25563;50.844;4.308;2022-09-27T22:03:53;8.45;;;4.53;;
39888;SDS011;25563;50.844;4.308;2022-09-27T22:06:20;9.23;;;4.13;;
39888;SDS011;25563;50.844;4.308;2022-09-27T22:08:48;5.13;;;3.47;;
39888;SDS011;25563;50.844;4.308;2022-09-27T22:11:15;4.90;;;3.25;;
39888;SDS011;25563;50.844;4.308;2022-09-27T22:13:43;4.57;;;3.10;;
39888;SDS011;25563;50.844;4.308;2022-09-27T22:16:12;3.90;;;3.00;;
39888;SDS011;25563;50.844;4.308;2022-09-27T22:18:43;4.05;;;3.20;;
39888;SDS011;25563;50.844;4.308;2022-09-27T22:21:12;6.00;;;3.25;;
39888;SDS011;25563;50.844;4.308;2022-09-27T22:23:39;4.45;;;3.55;;
39888;SDS011;25563;50.844;4.308;2022-09-27T22:26:12;4.95;;;3.25;;
39888;SDS011;25563;50.844;4.308;2022-09-27T22:28:40;4.50;;;3.50;;
39888;SDS011;25563;50.844;4.308;2022-09-27T22:31:06;6.63;;;3.65;;
39888;SDS011;25563;50.844;4.308;2022-09-27T22:33:33;6.03;;;3.15;;
39888;SDS011;25563;50.844;4.308;2022-09-27T22:35:58;3.15;;;2.78;;
39888;SDS011;25563;50.844;4.308;2022-09-27T22:38:24;4.00;;;3.15;;
39888;SDS011;25563;50.844;4.308;2022-09-27T22:40:57;6.10;;;3.13;;
39888;SDS011;25563;50.844;4.308;2022-09-27T22:43:25;12.18;;;3.20;;
39888;SDS011;25563;50.844;4.308;2022-09-27T22:45:55;3.63;;;2.80;;
39888;SDS011;25563;50.844;4.308;2022-09-27T22:48:21;5.57;;;3.25;;
39888;SDS011;25563;50.844;4.308;2022-09-27T22:50:47;3.75;;;2.65;;
39888;SDS011;25563;50.844;4.308;2022-09-27T22:53:13;5.60;;;3.47;;
39888;SDS011;25563;50.844;4.308;2022-09-27T22:55:39;6.15;;;2.67;;
39888;SDS011;25563;50.844;4.308;2022-09-27T22:58:05;4.65;;;3.03;;
39888;SDS011;25563;50.844;4.308;2022-09-27T23:00:31;3.05;;;2.83;;
39888;SDS011;25563;50.844;4.308;2022-09-27T23:02:57;4.15;;;3.40;;
39888;SDS011;25563;50.844;4.308;2022-09-27T23:05:24;7.00;;;2.97;;
39888;SDS011;25563;50.844;4.308;2022-09-27T23:07:50;4.00;;;2.80;;
39888;SDS011;25563;50.844;4.308;2022-09-27T23:10:17;8.85;;;2.90;;
39888;SDS011;25563;50.844;4.308;2022-09-27T23:12:51;2.95;;;2.65;;
39888;SDS011;25563;50.844;4.308;2022-09-27T23:15:18;8.07;;;2.80;;
39888;SDS011;25563;50.844;4.308;2022-09-27T23:17:49;4.95;;;2.60;;
39888;SDS011;25563;50.844;4.308;2022-09-27T23:20:15;2.67;;;2.42;;
39888;SDS011;25563;50.844;4.308;2022-09-27T23:22:42;4.50;;;2.20;;
39888;SDS011;25563;50.844;4.308;2022-09-27T23:25:13;4.95;;;2.70;;
39888;SDS011;25563;50.844;4.308;2022-09-27T23:27:39;4.20;;;2.80;;
39888;SDS011;25563;50.844;4.308;2022-09-27T23:30:12;4.93;;;2.47;;
39888;SDS011;25563;50.844;4.308;2022-09-27T23:32:39;5.50;;;2.40;;
39888;SDS011;25563;50.844;4.308;2022-09-27T23:35:10;2.90;;;2.65;;
39888;SDS011;25563;50.844;4.308;2022-09-27T23:37:37;3.90;;;2.92;;
39888;SDS011;25563;50.844;4.308;2022-09-27T23:40:06;5.10;;;2.50;;
39888;SDS011;25563;50.844;4.308;2022-09-27T23:42:33;7.20;;;2.80;;
39888;SDS011;25563;50.844;4.308;2022-09-27T23:44:59;4.65;;;3.10;;
39888;SDS011;25563;50.844;4.308;2022-09-27T23:47:26;7.65;;;3.22;;